Terminal Aerodrome Forecast
Issued by NWS Charleston, WV

Current Version | Previous Version | Graphics & Text | Print | Product List | Glossary On
Versions: 1 2 3 4 5 6 7 8 9 10 11 12 13 14 15 16 17 18 19 20 21 22 23 24 25
000
FTUS41 KRLX 211700 RRA
TAFCRW
TAF
KCRW 211720Z 2117/2218 18004KT P6SM VCTS SCT022 BKN060CB
     FM212000 21004KT 6SM -SHRA VCTS SCT022 BKN040CB
     FM220300 00000KT P6SM -RA BKN025 BKN040
     FM221100 00000KT 2SM BR BKN070
     FM221400 00000KT 6SM BR VCTS BKN080CB=

USA.gov is the U.S. government's official web portal to all federal, state and local government web resources and services.